createdAt,value
2023-05-19T00:00:59.415Z,86.25
2023-05-19T00:03:27.798Z,86.09
2023-05-19T00:05:54.847Z,85.55
2023-05-19T00:08:23.600Z,85.90
2023-05-19T00:10:51.297Z,85.98
2023-05-19T00:13:18.175Z,85.66
2023-05-19T00:15:45.162Z,85.66
2023-05-19T00:18:12.034Z,86.21
2023-05-19T00:20:38.819Z,86.27
2023-05-19T00:23:05.454Z,86.69
2023-05-19T00:25:32.249Z,86.75
2023-05-19T00:28:00.334Z,86.41
2023-05-19T00:30:29.637Z,85.78
2023-05-19T00:32:57.070Z,86.41
2023-05-19T00:35:24.557Z,85.65
2023-05-19T00:37:51.227Z,86.30
2023-05-19T00:40:22.456Z,86.15
2023-05-19T00:42:49.097Z,86.59
2023-05-19T00:45:15.920Z,86.65
2023-05-19T00:47:42.734Z,87.33
2023-05-19T00:50:10.176Z,86.74
2023-05-19T00:52:38.378Z,87.07
2023-05-19T00:55:08.291Z,87.46
2023-05-19T00:57:35.070Z,87.64
2023-05-19T01:00:01.849Z,87.69
2023-05-19T01:02:29.147Z,87.49
2023-05-19T01:04:57.557Z,87.70
2023-05-19T01:07:24.292Z,88.17
2023-05-19T01:09:52.307Z,87.67
2023-05-19T01:12:19.258Z,87.64
2023-05-19T01:14:47.459Z,87.55
2023-05-19T01:17:22.324Z,88.00
2023-05-19T01:20:08.455Z,88.00
2023-05-19T01:23:02.831Z,88.12
2023-05-19T01:26:07.428Z,88.26
2023-05-19T01:29:02.561Z,88.41
2023-05-19T01:31:29.829Z,88.14
2023-05-19T01:33:58.446Z,87.81
2023-05-19T01:36:30.140Z,87.95
2023-05-19T01:38:59.178Z,87.71
2023-05-19T01:41:26.824Z,88.29
2023-05-19T01:43:54.035Z,88.19
2023-05-19T01:46:21.501Z,87.70
2023-05-19T01:48:48.658Z,87.70
2023-05-19T01:51:15.417Z,88.21
2023-05-19T01:53:42.221Z,88.16
2023-05-19T01:56:09.146Z,88.07
2023-05-19T01:58:46.379Z,88.15
2023-05-19T02:01:34.213Z,88.21
2023-05-19T02:04:16.420Z,87.85
2023-05-19T02:07:03.981Z,87.49
2023-05-19T02:10:05.386Z,87.37
2023-05-19T02:12:36.291Z,87.54
2023-05-19T02:15:15.660Z,87.36
2023-05-19T02:17:47.074Z,87.93
2023-05-19T02:20:15.632Z,87.64
2023-05-19T02:22:42.872Z,87.57
2023-05-19T02:25:11.666Z,87.89
2023-05-19T02:27:41.698Z,87.44
2023-05-19T02:30:11.590Z,87.13
2023-05-19T02:32:38.493Z,87.58
2023-05-19T02:35:05.860Z,87.56
2023-05-19T02:37:32.992Z,87.58
2023-05-19T02:39:59.895Z,88.01
2023-05-19T02:42:26.579Z,87.32
2023-05-19T02:44:54.771Z,87.55
2023-05-19T02:47:24.461Z,87.83
2023-05-19T02:49:51.185Z,87.46
2023-05-19T02:52:17.819Z,88.42
2023-05-19T02:54:44.804Z,88.18
2023-05-19T02:57:11.612Z,88.46
2023-05-19T02:59:38.599Z,88.31
2023-05-19T03:02:05.702Z,88.29
2023-05-19T03:04:32.774Z,88.73
2023-05-19T03:06:59.659Z,88.37
2023-05-19T03:09:26.406Z,89.29
2023-05-19T03:11:53.153Z,88.78
2023-05-19T03:14:19.830Z,88.75
2023-05-19T03:16:50.838Z,88.24
2023-05-19T03:19:17.927Z,89.06
2023-05-19T03:21:44.593Z,88.21
2023-05-19T03:24:11.239Z,88.49
2023-05-19T03:26:37.975Z,88.89
2023-05-19T03:29:04.743Z,88.34
2023-05-19T03:31:31.537Z,88.41
2023-05-19T03:33:58.362Z,88.39
2023-05-19T03:36:25.245Z,87.80
2023-05-19T03:38:52.099Z,88.14
2023-05-19T03:41:19.054Z,88.55
2023-05-19T03:43:47.905Z,87.95
2023-05-19T03:46:14.617Z,88.51
2023-05-19T03:48:41.333Z,87.73
2023-05-19T03:51:08.320Z,88.03
2023-05-19T03:53:36.785Z,88.73
2023-05-19T03:56:03.661Z,87.32
2023-05-19T03:58:30.446Z,87.89
2023-05-19T04:00:57.523Z,88.43
2023-05-19T04:03:24.620Z,88.55
2023-05-19T04:05:51.782Z,88.25
2023-05-19T04:08:18.548Z,87.66
2023-05-19T04:10:45.457Z,87.54
2023-05-19T04:13:13.189Z,87.23
2023-05-19T04:15:40.009Z,87.46
2023-05-19T04:18:07.221Z,87.50
2023-05-19T04:20:34.320Z,86.64
2023-05-19T04:23:02.257Z,87.31
2023-05-19T04:25:29.091Z,87.29
2023-05-19T04:27:55.815Z,87.03
2023-05-19T04:30:22.832Z,87.21
2023-05-19T04:32:49.703Z,86.52
2023-05-19T04:35:16.774Z,86.65
2023-05-19T04:37:44.866Z,87.01
2023-05-19T04:40:13.190Z,86.71
2023-05-19T04:42:39.899Z,87.05
2023-05-19T04:45:07.635Z,86.06
2023-05-19T04:47:37.473Z,87.09
2023-05-19T04:50:07.667Z,85.82
2023-05-19T04:52:34.366Z,85.70
2023-05-19T04:55:04.339Z,85.53
2023-05-19T04:57:36.933Z,84.66
2023-05-19T05:00:05.479Z,85.05
2023-05-19T05:02:32.239Z,83.16
2023-05-19T05:04:58.955Z,83.05
2023-05-19T05:07:26.227Z,84.09
2023-05-19T05:09:52.985Z,83.76
2023-05-19T05:12:20.227Z,84.84
2023-05-19T05:14:47.458Z,83.15
2023-05-19T05:17:14.525Z,83.29
2023-05-19T05:19:41.756Z,81.86
2023-05-19T05:22:11.979Z,83.37
2023-05-19T05:24:38.939Z,84.75
2023-05-19T05:27:06.130Z,83.08
2023-05-19T05:29:36.901Z,83.25
2023-05-19T05:32:05.822Z,82.01
2023-05-19T05:34:32.764Z,82.63
2023-05-19T05:36:59.731Z,82.73
2023-05-19T05:39:33.576Z,82.13
2023-05-19T05:42:03.679Z,80.58
2023-05-19T05:44:31.428Z,80.30
2023-05-19T05:46:58.471Z,79.50
2023-05-19T05:49:25.576Z,79.53
2023-05-19T05:52:05.146Z,77.67
2023-05-19T05:54:33.833Z,76.67
2023-05-19T05:57:01.316Z,78.44
2023-05-19T05:59:31.846Z,75.41
2023-05-19T06:01:59.216Z,75.50
2023-05-19T06:04:26.226Z,75.57
2023-05-19T06:06:52.954Z,75.11
2023-05-19T06:09:20.820Z,74.79
2023-05-19T06:11:47.906Z,74.53
2023-05-19T06:14:15.146Z,74.93
2023-05-19T06:16:42.086Z,74.10
2023-05-19T06:19:11.847Z,72.15
2023-05-19T06:21:38.808Z,73.18
2023-05-19T06:24:08.082Z,72.41
2023-05-19T06:29:31.547Z,70.92
2023-05-19T06:32:05.598Z,70.98
2023-05-19T06:37:24.676Z,72.70
2023-05-19T06:40:04.998Z,70.44
2023-05-19T06:42:34.816Z,72.40
2023-05-19T06:45:01.784Z,70.95
2023-05-19T06:47:33.310Z,72.02
2023-05-19T06:50:00.024Z,71.53
2023-05-19T06:52:29.401Z,71.78
2023-05-19T06:54:56.063Z,72.32
2023-05-19T06:57:22.964Z,72.29
2023-05-19T06:59:50.067Z,71.63
2023-05-19T07:02:17.208Z,71.24
2023-05-19T07:04:47.104Z,71.10
2023-05-19T07:07:13.964Z,70.32
2023-05-19T07:09:40.685Z,71.13
2023-05-19T07:12:07.681Z,72.32
2023-05-19T07:14:34.707Z,72.97
2023-05-19T07:17:01.445Z,72.46
2023-05-19T07:19:28.266Z,72.19
2023-05-19T07:21:55.583Z,73.15
2023-05-19T07:24:24.482Z,72.12
2023-05-19T07:26:51.201Z,71.34
2023-05-19T07:29:20.782Z,72.83
2023-05-19T07:31:48.341Z,72.30
2023-05-19T07:34:15.076Z,72.67
2023-05-19T07:36:41.813Z,71.31
2023-05-19T07:39:08.814Z,72.02
2023-05-19T07:41:39.241Z,71.82
2023-05-19T07:44:08.180Z,73.00
2023-05-19T07:46:35.414Z,71.63
2023-05-19T07:49:13.135Z,72.38
2023-05-19T07:51:40.000Z,72.28
2023-05-19T07:54:06.753Z,72.11
2023-05-19T07:56:47.909Z,71.74
2023-05-19T07:59:16.874Z,71.32
2023-05-19T08:01:45.867Z,72.39
2023-05-19T08:04:13.270Z,71.62
2023-05-19T08:06:44.085Z,71.43
2023-05-19T08:12:26.250Z,71.74
2023-05-19T08:14:53.196Z,72.06
2023-05-19T08:17:49.602Z,71.28
2023-05-19T08:20:16.449Z,69.99
2023-05-19T08:23:03.898Z,69.39
2023-05-19T08:25:30.806Z,69.50
2023-05-19T08:27:57.952Z,69.35
2023-05-19T08:30:29.077Z,67.96
2023-05-19T08:32:55.972Z,68.81
2023-05-19T08:35:22.807Z,67.80
2023-05-19T08:37:49.438Z,67.70
2023-05-19T08:40:22.229Z,68.46
2023-05-19T08:42:51.948Z,69.37
2023-05-19T08:45:18.682Z,68.74
2023-05-19T08:47:46.863Z,67.71
2023-05-19T08:50:48.968Z,69.23
2023-05-19T08:53:34.255Z,69.61
2023-05-19T08:56:34.393Z,67.49
2023-05-19T08:59:16.637Z,70.00
2023-05-19T09:01:54.564Z,69.44
2023-05-19T09:04:47.547Z,69.40
2023-05-19T09:07:18.959Z,69.00
2023-05-19T09:13:03.838Z,69.59
2023-05-19T09:15:31.844Z,67.99
2023-05-19T09:18:12.544Z,68.14
2023-05-19T09:21:09.284Z,69.47
2023-05-19T09:23:41.928Z,69.59
2023-05-19T09:26:09.656Z,67.94
2023-05-19T09:28:37.401Z,69.25
2023-05-19T09:31:11.181Z,68.81
2023-05-19T09:34:09.505Z,68.23
2023-05-19T09:36:43.993Z,68.29
2023-05-19T09:39:42.045Z,66.09
2023-05-19T09:45:12.304Z,66.95
2023-05-19T09:47:54.829Z,68.42
2023-05-19T09:50:27.628Z,68.07
2023-05-19T09:52:58.449Z,65.60
2023-05-19T09:55:35.456Z,66.97
2023-05-19T09:58:06.706Z,67.69
2023-05-19T10:00:34.473Z,67.30
2023-05-19T10:03:16.147Z,68.38
2023-05-19T10:05:50.714Z,69.54
2023-05-19T10:08:17.856Z,69.19
2023-05-19T10:10:48.669Z,68.32
2023-05-19T10:13:16.671Z,67.87
2023-05-19T10:15:58.245Z,66.88
2023-05-19T10:18:27.338Z,67.04
2023-05-19T10:20:55.714Z,67.37
2023-05-19T10:23:22.781Z,66.58
2023-05-19T10:25:51.493Z,67.22
2023-05-19T10:28:22.866Z,67.53
2023-05-19T10:30:52.135Z,67.30
2023-05-19T10:33:21.908Z,67.73
2023-05-19T10:35:51.264Z,68.03
2023-05-19T10:38:32.942Z,65.96
2023-05-19T10:41:23.908Z,66.40
2023-05-19T10:44:13.893Z,67.42
2023-05-19T10:46:47.008Z,67.34
2023-05-19T10:49:25.895Z,67.51
2023-05-19T10:51:56.099Z,68.23
2023-05-19T10:54:46.689Z,67.60
2023-05-19T10:57:17.812Z,67.46
2023-05-19T10:59:44.909Z,67.79
2023-05-19T11:02:37.360Z,67.91
2023-05-19T11:05:15.304Z,67.94
2023-05-19T11:07:43.098Z,67.46
2023-05-19T11:10:10.857Z,66.65
2023-05-19T11:12:42.547Z,67.02
2023-05-19T11:15:16.317Z,67.59
2023-05-19T11:17:50.250Z,66.80
2023-05-19T11:20:32.607Z,66.58
2023-05-19T11:23:18.186Z,64.95
2023-05-19T11:25:51.765Z,66.75
2023-05-19T11:28:22.272Z,67.28
2023-05-19T11:30:49.474Z,66.07
2023-05-19T11:33:16.486Z,66.26
2023-05-19T11:35:47.400Z,67.36
2023-05-19T11:38:24.940Z,66.64
2023-05-19T11:40:55.483Z,64.78
2023-05-19T11:43:36.084Z,64.36
2023-05-19T11:46:10.665Z,65.69
2023-05-19T11:48:37.926Z,65.77
2023-05-19T11:51:07.931Z,65.57
2023-05-19T11:53:42.389Z,66.11
2023-05-19T11:56:12.678Z,67.04
2023-05-19T11:58:42.717Z,65.28
2023-05-19T12:01:09.910Z,65.02
2023-05-19T12:03:37.209Z,63.67
2023-05-19T12:06:10.577Z,65.22
2023-05-19T12:08:37.361Z,65.08
2023-05-19T12:11:05.128Z,63.99
2023-05-19T12:13:31.886Z,64.48
2023-05-19T12:16:03.598Z,64.34
2023-05-19T12:18:36.750Z,64.92
2023-05-19T12:21:04.572Z,63.71
2023-05-19T12:23:35.344Z,64.12
2023-05-19T12:26:05.068Z,64.15
2023-05-19T12:28:31.914Z,64.12
2023-05-19T12:30:59.045Z,64.26
2023-05-19T12:33:26.017Z,63.58
2023-05-19T12:35:55.112Z,63.22
2023-05-19T12:38:22.844Z,61.21
2023-05-19T12:40:50.274Z,63.14
2023-05-19T12:43:23.555Z,63.23
2023-05-19T12:45:50.328Z,63.36
2023-05-19T12:48:17.420Z,63.50
2023-05-19T12:50:54.888Z,62.29
2023-05-19T12:53:26.602Z,62.49
2023-05-19T12:55:53.513Z,62.37
2023-05-19T12:58:21.191Z,62.40
2023-05-19T13:00:54.814Z,61.76
2023-05-19T13:03:21.886Z,62.62
2023-05-19T13:05:50.166Z,63.09
2023-05-19T13:08:24.267Z,63.19
2023-05-19T13:10:53.648Z,61.19
2023-05-19T13:13:20.361Z,60.28
2023-05-19T13:15:50.477Z,60.61
2023-05-19T13:18:17.996Z,61.54
2023-05-19T13:20:45.867Z,61.02
2023-05-19T13:23:13.512Z,61.48
2023-05-19T13:25:41.327Z,60.97
2023-05-19T13:28:12.819Z,61.77
2023-05-19T13:30:40.916Z,60.42
2023-05-19T13:33:07.944Z,59.45
2023-05-19T13:35:35.360Z,58.96
2023-05-19T13:38:09.139Z,59.38
2023-05-19T13:40:35.896Z,59.57
2023-05-19T13:43:03.978Z,60.79
2023-05-19T13:45:35.323Z,60.29
2023-05-19T13:48:02.229Z,60.39
2023-05-19T13:50:31.681Z,60.41
2023-05-19T13:52:58.462Z,61.35
2023-05-19T13:55:25.951Z,61.28
2023-05-19T13:57:54.315Z,61.00
2023-05-19T14:00:25.780Z,61.43
2023-05-19T14:02:53.705Z,61.43
2023-05-19T14:05:20.475Z,62.38
2023-05-19T14:07:47.133Z,62.11
2023-05-19T14:10:15.632Z,62.03
2023-05-19T14:13:07.853Z,62.19
2023-05-19T14:15:29.134Z,62.86
2023-05-19T14:17:55.891Z,63.77
2023-05-19T14:20:27.859Z,65.21
2023-05-19T14:22:55.903Z,68.36
2023-05-19T14:25:22.812Z,73.52
2023-05-19T14:27:49.615Z,77.92
2023-05-19T14:30:16.372Z,80.53
2023-05-19T14:32:43.240Z,85.78
2023-05-19T14:35:10.528Z,86.36
2023-05-19T14:37:37.269Z,88.28
2023-05-19T14:40:04.236Z,90.27
2023-05-19T14:42:31.071Z,90.66
2023-05-19T14:45:04.170Z,91.43
2023-05-19T14:47:31.111Z,91.32
2023-05-19T14:49:57.852Z,92.40
2023-05-19T14:52:24.662Z,91.85
2023-05-19T14:54:51.345Z,94.12
2023-05-19T14:57:19.542Z,94.57
2023-05-19T14:59:46.430Z,94.62
2023-05-19T15:02:13.345Z,92.74
2023-05-19T15:04:40.188Z,94.10
2023-05-19T15:07:10.974Z,92.92
2023-05-19T15:09:38.238Z,92.24
2023-05-19T15:12:06.457Z,91.82
2023-05-19T15:14:35.697Z,89.59
2023-05-19T15:17:02.643Z,90.01
2023-05-19T15:19:32.262Z,90.29
2023-05-19T15:21:59.082Z,90.05
2023-05-19T15:24:26.020Z,90.27
2023-05-19T15:26:56.104Z,90.60
2023-05-19T15:29:22.770Z,91.50
2023-05-19T15:31:52.525Z,90.64
2023-05-19T15:34:20.101Z,90.03
2023-05-19T15:36:47.126Z,89.57
2023-05-19T15:39:14.041Z,89.38
2023-05-19T15:41:40.868Z,89.44
2023-05-19T15:44:10.630Z,90.92
2023-05-19T15:46:37.478Z,90.54
2023-05-19T15:49:04.639Z,87.32
2023-05-19T15:51:31.394Z,85.62
2023-05-19T15:53:58.603Z,84.91
2023-05-19T15:56:25.358Z,86.25
2023-05-19T15:58:55.052Z,85.93
2023-05-19T16:01:21.889Z,83.91
2023-05-19T16:03:51.670Z,79.33
2023-05-19T16:06:18.681Z,80.64
2023-05-19T16:08:45.395Z,78.60
2023-05-19T16:11:12.119Z,79.59
2023-05-19T16:13:38.789Z,79.74
2023-05-19T16:16:06.135Z,74.62
2023-05-19T16:18:32.925Z,75.99
2023-05-19T16:20:59.747Z,74.39
2023-05-19T16:23:26.458Z,74.63
2023-05-19T16:25:53.836Z,74.56
2023-05-19T16:28:22.563Z,74.02
2023-05-19T16:30:55.112Z,73.18
2023-05-19T16:33:21.769Z,74.46
2023-05-19T16:35:49.615Z,74.39
2023-05-19T16:38:21.831Z,74.75
2023-05-19T16:40:48.552Z,74.68
2023-05-19T16:43:15.202Z,75.55
2023-05-19T16:45:42.077Z,75.99
2023-05-19T16:48:09.757Z,76.17
2023-05-19T16:50:36.837Z,76.61
2023-05-19T16:53:03.891Z,77.34
2023-05-19T16:55:39.687Z,77.08
2023-05-19T16:58:06.447Z,77.54
2023-05-19T17:00:34.484Z,78.00
2023-05-19T17:03:01.555Z,78.64
2023-05-19T17:05:29.596Z,77.83
2023-05-19T17:07:56.272Z,78.55
2023-05-19T17:10:22.981Z,79.12
2023-05-19T17:12:53.488Z,79.27
2023-05-19T17:15:20.209Z,79.26
2023-05-19T17:17:46.889Z,80.43
2023-05-19T17:20:16.502Z,80.64
2023-05-19T17:22:45.792Z,81.70
2023-05-19T17:25:15.353Z,80.41
2023-05-19T17:27:42.095Z,80.14
2023-05-19T17:30:11.428Z,79.75
2023-05-19T17:32:38.281Z,81.06
2023-05-19T17:35:06.402Z,81.63
2023-05-19T17:37:33.389Z,82.37
2023-05-19T17:40:00.552Z,81.21
2023-05-19T17:42:27.306Z,81.60
2023-05-19T17:44:54.125Z,80.91
2023-05-19T17:47:21.001Z,82.51
2023-05-19T17:49:50.325Z,82.16
2023-05-19T17:52:27.098Z,83.56
2023-05-19T17:54:57.255Z,84.04
2023-05-19T17:57:25.953Z,84.06
2023-05-19T17:59:53.189Z,84.30
2023-05-19T18:02:20.246Z,81.75
2023-05-19T18:04:47.325Z,80.95
2023-05-19T18:07:22.132Z,79.27
2023-05-19T18:09:54.273Z,79.90
2023-05-19T18:12:24.001Z,78.40
2023-05-19T18:14:50.742Z,77.13
2023-05-19T18:17:17.606Z,77.00
2023-05-19T18:19:44.304Z,76.62
2023-05-19T18:22:13.237Z,76.00
2023-05-19T18:24:39.992Z,75.88
2023-05-19T18:27:09.756Z,75.60
2023-05-19T18:29:43.595Z,74.48
2023-05-19T18:32:10.604Z,75.63
2023-05-19T18:34:52.900Z,75.37
2023-05-19T18:37:25.516Z,75.35
2023-05-19T18:39:57.578Z,75.49
2023-05-19T18:42:24.363Z,76.13
2023-05-19T18:45:00.284Z,76.62
2023-05-19T18:47:30.075Z,77.59
2023-05-19T18:49:58.070Z,77.77
2023-05-19T18:52:24.931Z,79.71
2023-05-19T18:54:51.702Z,78.93
2023-05-19T18:57:18.543Z,79.26
2023-05-19T18:59:45.420Z,79.11
2023-05-19T19:02:12.183Z,80.56
2023-05-19T19:04:39.477Z,79.53
2023-05-19T19:07:06.148Z,79.40
2023-05-19T19:09:39.029Z,79.90
2023-05-19T19:12:05.978Z,79.89
2023-05-19T19:14:35.685Z,81.16
2023-05-19T19:17:02.397Z,81.97
2023-05-19T19:19:29.229Z,80.97
2023-05-19T19:21:57.169Z,78.00
2023-05-19T19:24:25.859Z,79.33
2023-05-19T19:26:52.603Z,78.21
2023-05-19T19:29:19.242Z,77.68
2023-05-19T19:31:46.106Z,77.14
2023-05-19T19:34:14.709Z,76.50
2023-05-19T19:36:41.444Z,77.51
2023-05-19T19:39:08.107Z,78.77
2023-05-19T19:41:34.766Z,79.10
2023-05-19T19:44:05.622Z,79.09
2023-05-19T19:46:32.542Z,79.06
2023-05-19T19:48:59.306Z,79.26
2023-05-19T19:51:27.048Z,79.37
2023-05-19T19:53:54.029Z,78.86
2023-05-19T19:56:20.834Z,78.62
2023-05-19T19:58:47.679Z,78.50
2023-05-19T20:01:14.363Z,79.05
2023-05-19T20:03:48.197Z,79.87
2023-05-19T20:06:15.122Z,79.82
2023-05-19T20:08:41.908Z,79.80
2023-05-19T20:11:08.694Z,80.15
2023-05-19T20:13:35.514Z,80.35
2023-05-19T20:16:03.352Z,80.69
2023-05-19T20:18:30.196Z,79.89
2023-05-19T20:20:57.279Z,80.44
2023-05-19T20:23:24.993Z,80.49
2023-05-19T20:26:09.986Z,80.04
2023-05-19T20:28:38.254Z,80.09
2023-05-19T20:31:05.226Z,80.05
2023-05-19T20:33:33.614Z,80.04
2023-05-19T20:36:01.958Z,81.03
2023-05-19T20:38:28.727Z,81.25
2023-05-19T20:40:55.426Z,81.20
2023-05-19T20:43:22.103Z,81.39
2023-05-19T20:45:48.906Z,82.12
2023-05-19T20:48:17.776Z,83.08
2023-05-19T20:50:48.202Z,82.71
2023-05-19T20:53:14.995Z,82.30
2023-05-19T20:55:44.608Z,82.67
2023-05-19T20:58:12.126Z,83.35
2023-05-19T21:00:38.937Z,84.21
2023-05-19T21:03:05.859Z,83.34
2023-05-19T21:05:32.793Z,83.61
2023-05-19T21:07:59.604Z,83.22
2023-05-19T21:10:26.343Z,83.36
2023-05-19T21:12:53.143Z,83.50
2023-05-19T21:15:20.023Z,83.46
2023-05-19T21:17:46.896Z,83.21
2023-05-19T21:20:13.642Z,83.70
2023-05-19T21:22:43.524Z,83.19
2023-05-19T21:25:10.298Z,82.75
2023-05-19T21:27:37.012Z,82.48
2023-05-19T21:30:03.895Z,82.91
2023-05-19T21:32:30.739Z,83.25
2023-05-19T21:35:00.527Z,82.79
2023-05-19T21:37:27.653Z,82.91
2023-05-19T21:39:54.328Z,83.50
2023-05-19T21:42:21.107Z,83.34
2023-05-19T21:44:47.804Z,83.97
2023-05-19T21:47:16.983Z,84.29
2023-05-19T21:49:44.022Z,83.93
2023-05-19T21:52:10.757Z,84.79
2023-05-19T21:54:37.480Z,83.85
2023-05-19T21:57:04.447Z,84.29
2023-05-19T21:59:31.168Z,83.59
2023-05-19T22:01:58.525Z,83.84
2023-05-19T22:04:25.296Z,83.85
2023-05-19T22:06:55.953Z,83.55
2023-05-19T22:09:22.736Z,83.69
2023-05-19T22:11:51.230Z,83.88
2023-05-19T22:14:29.999Z,84.98
2023-05-19T22:16:57.486Z,85.02
2023-05-19T22:19:24.236Z,85.21
2023-05-19T22:21:58.423Z,85.21
2023-05-19T22:24:36.095Z,85.56
2023-05-19T22:27:03.437Z,86.49
2023-05-19T22:29:30.095Z,85.71
2023-05-19T22:31:56.906Z,86.20
2023-05-19T22:34:23.695Z,86.90
2023-05-19T22:36:52.163Z,86.33
2023-05-19T22:39:28.260Z,86.58
2023-05-19T22:41:57.383Z,85.88
2023-05-19T22:44:26.188Z,86.64
2023-05-19T22:46:53.050Z,85.75
2023-05-19T22:49:22.015Z,85.65
2023-05-19T22:51:49.805Z,85.82
2023-05-19T22:54:21.407Z,85.88
2023-05-19T22:56:48.081Z,85.69
2023-05-19T22:59:23.973Z,85.20
2023-05-19T23:01:50.865Z,85.14
2023-05-19T23:04:17.622Z,86.01
2023-05-19T23:06:44.575Z,86.07
2023-05-19T23:09:13.038Z,85.32
2023-05-19T23:11:39.717Z,85.42
2023-05-19T23:14:07.332Z,85.71
2023-05-19T23:16:35.433Z,86.29
2023-05-19T23:19:02.531Z,85.74
2023-05-19T23:21:30.616Z,86.63
2023-05-19T23:23:57.469Z,86.08
2023-05-19T23:26:24.189Z,86.08
2023-05-19T23:28:53.455Z,85.73
2023-05-19T23:31:20.256Z,86.00
2023-05-19T23:33:47.020Z,85.78
2023-05-19T23:36:19.048Z,86.71
2023-05-19T23:38:48.555Z,87.03
2023-05-19T23:41:15.385Z,87.01
2023-05-19T23:43:44.855Z,87.54
2023-05-19T23:46:20.927Z,86.97
2023-05-19T23:48:49.060Z,87.27
2023-05-19T23:51:15.898Z,87.67
2023-05-19T23:53:42.838Z,88.47
2023-05-19T23:56:10.111Z,87.34
2023-05-19T23:58:37.090Z,87.93
